This demonstration page uses our WeatherBlox Daily Observations layout. Learn more.

38.89511, -77.03637

Hourly Observations for December 13, 2018

Temp ( °F °C ) Dew Point ( °F °C ) Humidity (%) Winds ( mph kmh ) Pressure ( in mb ) Visibility ( mi km ) Precip ( " mm )
12:52 am 00:52 Cloudy 39 3.9 29 -1.7 67 67 SSE 5 7 30.18 1022 10 16.09344 0 0
1:52 am 01:52 Cloudy 39 3.9 30 -1.1 70 70 S 5 7 30.18 1022 10 16.09344 0 0
2:52 am 02:52 Cloudy 41 5 30 -1.1 65 65 SSE 6 9 30.18 1022 10 16.09344 0 0
3:52 am 03:52 Cloudy 40 4.4 30 -1.1 68 68 S 5 7 30.18 1022 10 16.09344 0 0
4:52 am 04:52 Cloudy 39 3.9 31 -0.6 73 73 Calm 30.21 1023 10 16.09344 0 0
5:52 am 05:52 Cloudy 40 4.4 30 -1.1 68 68 SE 3 6 30.21 1023 10 16.09344 0 0
6:52 am 06:52 Cloudy 40 4.4 30 -1.1 68 68 SSE 6 9 30.24 1024 10 16.09344 0 0
7:52 am 07:52 Mostly Cloudy 40 4.4 30 -1.1 68 68 S 5 7 30.27 1025 10 16.09344 0 0
8:52 am 08:52 Partly Cloudy 39 3.9 31 -0.6 73 73 S 3 6 30.27 1025 10 16.09344 0 0
9:52 am 09:52 Sunny 43 6.1 31 -0.6 63 63 Calm 30.3 1026 10 16.09344 0 0
10:52 am 10:52 Mostly Sunny 46 7.8 30 -1.1 54 54 VRB 3 6 30.3 1026 10 16.09344 0 0
11:52 am 11:52 Mostly Sunny 48 8.9 30 -1.1 50 50 SSW 5 7 30.3 1026 10 16.09344 0 0
12:52 pm 12:52 Mostly Cloudy 51 10.6 30 -1.1 44 44 Calm 30.27 1025 10 16.09344 0 0
1:52 pm 13:52 Partly Cloudy 53 11.7 30 -1.1 41 41 Calm 30.27 1025 10 16.09344 0 0
2:52 pm 14:52 Cloudy 52 11.1 31 -0.6 45 45 Calm 30.3 1026 10 16.09344 0 0
3:52 pm 15:52 Mostly Cloudy 50 10 32 0 50 50 S 6 9 30.3 1026 10 16.09344 0 0
4:52 pm 16:52 Cloudy 49 9.4 33 0.6 55 55 SW 7 11 30.33 1027 10 16.09344 0 0
5:52 pm 17:52 Cloudy 47 8.3 35 1.7 63 63 S 5 7 30.33 1027 10 16.09344 0 0
6:52 pm 18:52 Cloudy 46 7.8 35 1.7 66 66 S 3 6 30.36 1028 10 16.09344 0 0
7:52 pm 19:52 Cloudy 45 7.2 35 1.7 68 68 ENE 7 11 30.36 1028 10 16.09344 0 0
8:52 pm 20:52 Cloudy 44 6.7 35 1.7 71 71 ESE 5 7 30.39 1029 10 16.09344 0 0
9:52 pm 21:52 Cloudy 46 7.8 35 1.7 66 66 Calm 30.39 1029 10 16.09344 0 0
10:52 pm 22:52 Cloudy 45 7.2 36 2.2 71 71 ENE 7 11 30.39 1029 10 16.09344 0 0
11:52 pm 23:52 Cloudy 44 6.7 35 1.7 71 71 ENE 6 9 30.39 1029 10 16.09344 0 0

Powered by AerisWeather